San Angelo's Hourly Summary for Tuesday, March 14, 2017
Hour Temp
(f)
RH
(%)
Solar Rad.
(MJ/m2)
Rainfall
(in)
Wind
(mph)
3/14/2017 12:00 AM 52 47 0 0 4.54
3/14/2017 1:00 AM 50 54 0 0 3.98
3/14/2017 2:00 AM 48 59 0 0 3.14
3/14/2017 3:00 AM 48 60 0 0 2.35
3/14/2017 4:00 AM 45 62 0 0 0.07
3/14/2017 5:00 AM 43 68 0 0 0.22
3/14/2017 6:00 AM 41 74 0 0 0.17
3/14/2017 7:00 AM 41 76 0 0 0.46
3/14/2017 8:00 AM 41 74 0.01 0 0.67
3/14/2017 9:00 AM 43 69 0.27 0 1.8
3/14/2017 10:00 AM 48 62 0.57 0 1.91
3/14/2017 11:00 AM 56 61 1.76 0 7.43
3/14/2017 12:00 PM 61 62 2.29 0 13.53
3/14/2017 1:00 PM 66 50 2.85 0 12.96
3/14/2017 2:00 PM 71 43 2.97 0 13.04
3/14/2017 3:00 PM 73 39 2.88 0 12.58
3/14/2017 4:00 PM 75 35 2.65 0 11.6
3/14/2017 5:00 PM 76 34 2.08 0 10.9
3/14/2017 6:00 PM 76 32 1.33 0 8.7
3/14/2017 7:00 PM 76 33 0.76 0 9.06
3/14/2017 8:00 PM 73 35 0.12 0 8.5
3/14/2017 9:00 PM 70 41 0 0 6.46
3/14/2017 10:00 PM 67 47 0 0 5.48
3/14/2017 11:00 PM 64 53 0 0 6.99
Data Summary 58 52 20.54 0.00 6.11